Time;durP1;ratioP1;P1;durP2;ratioP2;P2;SDS_P1;SDS_P2;PMS_P1;PMS_P2;Temp;Humidity;BMP_temperature;BMP_pressure;BME280_temperature;BME280_humidity;BME280_pressure;Samples;Min_cycle;Max_cycle;Signal;HPM_P1;HPM_P2
2023/06/02 00:02:03;;;;;;;32.70;5.97;;;21.50;51.80;;;;;;5010112;28;20561;-86
2023/06/02 00:04:31;;;;;;;38.50;6.63;;;21.50;51.80;;;;;;4998521;28;20208;-89
2023/06/02 00:07:03;;;;;;;32.37;6.00;;;21.50;51.80;;;;;;5008004;28;20279;-85
2023/06/02 00:09:30;;;;;;;32.50;6.20;;;21.50;51.80;;;;;;5007944;28;20611;-86
2023/06/02 00:11:57;;;;;;;34.97;6.37;;;21.50;51.90;;;;;;5010851;28;20190;-85
2023/06/02 00:14:27;;;;;;;31.87;6.43;;;21.40;51.80;;;;;;5009202;28;20720;-87
2023/06/02 00:16:57;;;;;;;40.27;7.10;;;21.50;51.80;;;;;;5010684;28;20209;-86
2023/06/02 00:19:31;;;;;;;28.13;5.83;;;21.40;51.70;;;;;;5018414;28;20264;-86
2023/06/02 00:21:58;;;;;;;46.33;7.20;;;21.40;51.70;;;;;;5018923;28;20205;-87
2023/06/02 00:24:25;;;;;;;40.10;6.90;;;21.40;51.80;;;;;;5011009;28;20238;-86
2023/06/02 00:26:53;;;;;;;40.33;6.53;;;21.40;51.80;;;;;;5010938;28;20239;-85
2023/06/02 00:29:20;;;;;;;31.87;6.23;;;21.40;51.80;;;;;;5011257;28;20226;-85
2023/06/02 00:31:47;;;;;;;30.27;5.80;;;21.40;51.80;;;;;;5009187;28;20212;-86
2023/06/02 00:34:15;;;;;;;38.87;6.67;;;21.40;51.80;;;;;;5009327;28;20236;-85
2023/06/02 00:36:45;;;;;;;37.50;6.63;;;21.40;51.80;;;;;;5009567;28;20234;-86
2023/06/02 00:39:12;;;;;;;35.63;6.63;;;21.30;51.70;;;;;;5010039;28;20698;-88
2023/06/02 00:41:39;;;;;;;35.03;6.33;;;21.30;51.70;;;;;;5009923;28;20677;-85
2023/06/02 00:44:06;;;;;;;46.87;7.17;;;21.30;51.70;;;;;;5009755;28;20668;-86
2023/06/02 00:46:33;;;;;;;39.27;6.50;;;21.30;51.80;;;;;;5010272;28;20206;-86
2023/06/02 00:49:00;;;;;;;51.60;8.20;;;21.30;51.70;;;;;;5008581;28;20198;-86
2023/06/02 00:51:27;;;;;;;42.67;6.90;;;21.30;51.70;;;;;;5005494;28;20235;-87
2023/06/02 00:53:55;;;;;;;49.20;7.50;;;21.30;51.70;;;;;;4998605;28;20236;-86
2023/06/02 00:56:23;;;;;;;45.03;7.07;;;21.30;51.70;;;;;;5008490;28;20208;-86
2023/06/02 00:58:50;;;;;;;49.03;7.23;;;21.20;51.70;;;;;;5008323;28;20633;-86
2023/06/02 01:01:18;;;;;;;55.77;8.30;;;21.20;51.60;;;;;;5008441;28;20202;-86
2023/06/02 01:03:47;;;;;;;56.37;8.20;;;21.20;51.70;;;;;;5007928;28;20287;-88
2023/06/02 01:06:23;;;;;;;38.63;6.67;;;21.20;51.60;;;;;;5008748;28;20210;-85
2023/06/02 01:08:51;;;;;;;55.03;7.80;;;21.20;51.60;;;;;;5006902;28;20199;-86
2023/06/02 01:11:21;;;;;;;34.10;6.63;;;21.20;51.70;;;;;;5007484;28;20203;-85
2023/06/02 01:13:49;;;;;;;40.00;7.13;;;21.20;51.60;;;;;;5004183;28;20879;-85
2023/06/02 01:16:16;;;;;;;40.90;6.67;;;21.20;51.70;;;;;;5006329;28;20225;-85
2023/06/02 01:18:45;;;;;;;54.83;7.77;;;21.20;51.70;;;;;;5006658;28;20722;-87
2023/06/02 01:21:21;;;;;;;66.37;9.13;;;21.10;51.60;;;;;;5008104;28;20260;-86
2023/06/02 01:23:51;;;;;;;57.33;8.17;;;21.10;51.60;;;;;;4996282;28;20217;-87
2023/06/02 01:26:18;;;;;;;59.33;8.57;;;21.10;51.60;;;;;;5007172;28;20198;-87
2023/06/02 01:28:45;;;;;;;45.53;7.23;;;21.10;51.60;;;;;;5008561;28;20317;-86
2023/06/02 01:31:16;;;;;;;56.83;8.23;;;21.10;51.60;;;;;;5007521;28;20213;-86
2023/06/02 01:33:51;;;;;;;56.93;8.67;;;21.10;51.60;;;;;;4999581;28;20244;-86
2023/06/02 01:36:23;;;;;;;42.30;7.23;;;21.10;51.60;;;;;;5007848;28;20648;-86
2023/06/02 01:38:54;;;;;;;47.40;7.73;;;21.00;51.50;;;;;;5004864;28;20213;-87
2023/06/02 01:41:22;;;;;;;54.50;7.83;;;21.00;51.50;;;;;;5006922;28;20208;-86
2023/06/02 01:43:49;;;;;;;47.33;7.33;;;21.00;51.50;;;;;;5007748;28;20205;-86
2023/06/02 01:46:17;;;;;;;30.20;5.87;;;21.00;51.50;;;;;;5007658;28;20255;-87
2023/06/02 01:48:44;;;;;;;51.73;8.00;;;21.00;51.50;;;;;;5003223;28;20204;-86
2023/06/02 01:51:11;;;;;;;37.00;6.77;;;21.00;51.50;;;;;;5007487;28;20201;-86
2023/06/02 01:53:38;;;;;;;39.77;6.73;;;21.00;51.50;;;;;;5007080;28;20229;-86
2023/06/02 01:56:07;;;;;;;39.23;6.63;;;21.00;51.50;;;;;;5005931;28;20201;-86
2023/06/02 01:58:34;;;;;;;38.23;6.73;;;21.00;51.50;;;;;;5007089;28;20241;-85
2023/06/02 02:01:01;;;;;;;32.87;6.20;;;20.90;51.50;;;;;;5007712;28;20201;-86
2023/06/02 02:03:29;;;;;;;36.30;6.50;;;20.90;51.50;;;;;;5006800;28;20232;-86
2023/06/02 02:05:56;;;;;;;58.83;8.60;;;20.90;51.50;;;;;;4999573;28;20297;-86
2023/06/02 02:08:23;;;;;;;42.83;7.47;;;20.90;51.40;;;;;;5006727;28;20238;-85
2023/06/02 02:10:53;;;;;;;34.47;6.63;;;20.90;51.50;;;;;;5008411;28;20203;-85
2023/06/02 02:13:21;;;;;;;43.43;7.10;;;20.90;51.50;;;;;;5007789;28;20209;-85
2023/06/02 02:15:48;;;;;;;40.40;6.93;;;20.90;51.50;;;;;;5008721;28;20213;-85
2023/06/02 02:18:15;;;;;;;40.23;6.63;;;20.90;51.50;;;;;;5008571;28;20201;-86
2023/06/02 02:20:42;;;;;;;29.27;5.70;;;20.90;51.50;;;;;;5008771;28;20202;-86
2023/06/02 02:23:09;;;;;;;42.23;7.00;;;20.80;51.40;;;;;;5008563;28;20224;-86
2023/06/02 02:25:36;;;;;;;48.27;7.63;;;20.80;51.50;;;;;;5007665;28;20203;-87
2023/06/02 02:28:03;;;;;;;35.23;6.43;;;20.80;51.40;;;;;;5007652;28;20197;-85
2023/06/02 02:30:31;;;;;;;39.47;6.97;;;20.80;51.40;;;;;;5007975;28;20213;-87
2023/06/02 02:33:01;;;;;;;35.90;7.50;;;20.80;51.40;;;;;;5008301;28;20208;-86
2023/06/02 02:35:28;;;;;;;41.47;6.87;;;20.80;51.40;;;;;;5008497;28;20235;-86
2023/06/02 02:37:55;;;;;;;34.07;6.27;;;20.80;51.40;;;;;;5009559;28;20213;-85
2023/06/02 02:40:22;;;;;;;35.90;6.87;;;20.80;51.50;;;;;;5009570;28;20678;-85
2023/06/02 02:42:49;;;;;;;64.50;8.93;;;20.80;51.40;;;;;;5007280;28;20294;-86
2023/06/02 02:45:16;;;;;;;35.60;6.57;;;20.70;51.30;;;;;;5010588;28;20555;-86
2023/06/02 02:47:44;;;;;;;23.90;5.83;;;20.70;51.40;;;;;;5010864;28;20678;-86
2023/06/02 02:50:11;;;;;;;36.30;6.87;;;20.80;51.40;;;;;;5011464;28;20300;-85
2023/06/02 02:52:38;;;;;;;26.30;5.57;;;20.70;51.40;;;;;;5009936;28;20208;-88
2023/06/02 02:55:06;;;;;;;26.67;5.77;;;20.70;51.60;;;;;;5009818;28;20812;-86
2023/06/02 02:57:33;;;;;;;26.93;5.73;;;20.70;51.30;;;;;;5010559;28;20213;-87
2023/06/02 03:00:00;;;;;;;28.47;6.43;;;20.70;51.30;;;;;;5009026;28;20191;-86
2023/06/02 03:02:27;;;;;;;29.60;6.40;;;20.70;51.40;;;;;;5009747;28;20193;-86
2023/06/02 03:04:56;;;;;;;46.33;7.63;;;20.70;51.40;;;;;;5008755;28;20202;-85
2023/06/02 03:07:24;;;;;;;62.53;8.87;;;20.70;51.40;;;;;;5006128;28;20233;-86
2023/06/02 03:09:51;;;;;;;34.83;6.80;;;20.70;51.30;;;;;;5007865;28;20255;-86
2023/06/02 03:12:18;;;;;;;39.20;6.63;;;20.70;51.40;;;;;;5008873;28;20206;-88
2023/06/02 03:14:45;;;;;;;37.27;6.63;;;20.70;51.30;;;;;;5009726;28;20217;-86
2023/06/02 03:17:13;;;;;;;45.63;7.03;;;20.60;51.30;;;;;;5011064;28;20292;-86
2023/06/02 03:19:40;;;;;;;30.67;6.63;;;20.60;51.20;;;;;;5010056;28;20208;-86
2023/06/02 03:22:08;;;;;;;38.03;7.37;;;20.60;51.30;;;;;;5011292;28;20201;-85
2023/06/02 03:24:35;;;;;;;43.73;7.13;;;20.60;51.30;;;;;;5008800;28;20211;-86
2023/06/02 03:27:03;;;;;;;36.63;6.83;;;20.60;51.50;;;;;;5007645;28;20704;-86
2023/06/02 03:29:30;;;;;;;33.80;6.73;;;20.50;51.20;;;;;;4992366;28;20218;-87
2023/06/02 03:31:58;;;;;;;27.50;6.10;;;20.50;51.20;;;;;;4999645;28;20262;-86
2023/06/02 03:34:25;;;;;;;22.80;5.43;;;20.50;51.20;;;;;;5006651;28;20225;-86
2023/06/02 03:36:52;;;;;;;39.10;7.30;;;20.50;51.20;;;;;;5009602;28;20300;-86
2023/06/02 03:39:20;;;;;;;27.13;6.43;;;20.50;51.30;;;;;;5011013;28;20654;-87
2023/06/02 03:41:47;;;;;;;26.37;5.57;;;20.50;51.20;;;;;;5008275;28;20288;-86
2023/06/02 03:44:15;;;;;;;28.77;5.90;;;20.50;51.20;;;;;;4997828;28;20206;-86
2023/06/02 03:46:43;;;;;;;26.13;6.00;;;20.50;51.20;;;;;;5002320;28;20662;-86
2023/06/02 03:49:10;;;;;;;47.90;7.43;;;20.50;51.30;;;;;;5010983;28;20292;-89
2023/06/02 03:51:36;;;;;;;66.80;9.23;;;20.40;51.20;;;;;;5006304;28;20221;-88
2023/06/02 03:54:03;;;;;;;29.73;6.47;;;20.40;51.20;;;;;;5006511;28;20204;-87
2023/06/02 03:56:32;;;;;;;30.73;6.37;;;20.40;51.20;;;;;;5010342;28;20220;-86
2023/06/02 03:58:58;;;;;;;43.47;7.43;;;20.40;51.20;;;;;;5009835;28;20570;-86
2023/06/02 04:01:26;;;;;;;34.13;6.37;;;20.40;51.20;;;;;;5011116;28;20201;-85
2023/06/02 04:03:53;;;;;;;29.73;6.27;;;20.40;51.20;;;;;;5011679;28;20233;-85
2023/06/02 04:06:21;;;;;;;31.37;6.87;;;20.40;51.20;;;;;;5010085;28;20300;-86
2023/06/02 04:08:49;;;;;;;43.13;7.57;;;20.40;51.30;;;;;;5010147;28;20212;-86
2023/06/02 04:11:16;;;;;;;39.80;7.27;;;20.40;51.30;;;;;;5011196;28;20208;-87
2023/06/02 04:13:47;;;;;;;35.63;6.73;;;20.40;51.20;;;;;;5009366;28;20220;-87
2023/06/02 04:16:14;;;;;;;47.13;7.90;;;20.40;51.20;;;;;;5008109;28;20239;-90
2023/06/02 04:18:42;;;;;;;41.57;7.33;;;20.30;51.20;;;;;;5007052;28;20642;-86
2023/06/02 04:21:09;;;;;;;57.20;8.43;;;20.30;51.20;;;;;;5007887;28;20201;-86
2023/06/02 04:23:35;;;;;;;41.07;7.67;;;20.30;51.10;;;;;;5006436;28;20224;-85
2023/06/02 04:26:02;;;;;;;36.20;6.87;;;20.30;51.20;;;;;;5009523;28;20676;-86
2023/06/02 04:28:30;;;;;;;39.27;6.80;;;20.30;51.10;;;;;;5009739;28;20220;-86
2023/06/02 04:31:00;;;;;;;52.57;8.33;;;20.30;51.20;;;;;;4991413;28;20222;-88
2023/06/02 04:33:27;;;;;;;37.10;7.40;;;20.30;51.20;;;;;;5006856;28;20209;-86
2023/06/02 04:35:55;;;;;;;54.17;8.60;;;20.30;51.20;;;;;;5007240;28;20674;-86
2023/06/02 04:38:21;;;;;;;40.10;7.50;;;20.30;51.20;;;;;;5006821;28;20243;-86
2023/06/02 04:40:48;;;;;;;55.70;9.07;;;20.30;51.20;;;;;;5006530;28;20197;-87
2023/06/02 04:43:15;;;;;;;44.60;7.77;;;20.30;51.20;;;;;;5006058;28;20205;-86
2023/06/02 04:45:45;;;;;;;31.50;6.60;;;20.20;51.10;;;;;;5009327;28;20219;-88
2023/06/02 04:48:14;;;;;;;23.83;6.07;;;20.30;51.20;;;;;;5011060;28;20658;-87
2023/06/02 04:50:41;;;;;;;17.20;5.37;;;20.20;51.10;;;;;;5012114;28;20554;-88
2023/06/02 04:53:08;;;;;;;29.33;6.33;;;20.30;51.20;;;;;;5010647;28;20256;-86
2023/06/02 04:55:35;;;;;;;59.50;8.47;;;20.20;51.10;;;;;;5008685;28;20689;-85
2023/06/02 04:58:05;;;;;;;45.20;8.33;;;20.20;51.20;;;;;;5009255;28;20201;-86
2023/06/02 05:00:32;;;;;;;26.07;6.33;;;20.20;51.10;;;;;;5009757;28;20255;-86
2023/06/02 05:03:02;;;;;;;33.57;6.77;;;20.20;51.10;;;;;;5008789;28;20264;-86
2023/06/02 05:05:30;;;;;;;27.30;6.50;;;20.20;51.10;;;;;;5016900;28;20206;-89
2023/06/02 05:07:57;;;;;;;36.37;7.23;;;20.20;51.10;;;;;;5010589;28;20194;-86
2023/06/02 05:10:24;;;;;;;32.33;6.77;;;20.20;51.20;;;;;;5009122;28;20267;-88
2023/06/02 05:12:53;;;;;;;25.87;6.10;;;20.20;51.20;;;;;;5006184;28;20204;-91
2023/06/02 05:15:20;;;;;;;40.40;7.30;;;20.20;51.80;;;;;;5006035;28;20239;-89
2023/06/02 05:17:47;;;;;;;43.30;7.63;;;20.20;51.20;;;;;;5008886;28;20233;-85
2023/06/02 05:20:14;;;;;;;45.10;7.63;;;20.10;51.10;;;;;;5006032;28;20205;-92
2023/06/02 05:22:42;;;;;;;20.83;5.43;;;20.10;51.10;;;;;;5010849;28;20204;-92
2023/06/02 05:25:10;;;;;;;22.50;5.80;;;20.10;51.10;;;;;;5013323;28;20651;-91
2023/06/02 05:27:38;;;;;;;30.40;6.47;;;20.10;51.20;;;;;;5016154;28;20285;-90
2023/06/02 05:30:06;;;;;;;26.30;5.77;;;20.10;51.20;;;;;;5019905;28;20205;-89
2023/06/02 05:32:35;;;;;;;25.47;5.67;;;20.10;51.10;;;;;;5017792;28;20202;-85
2023/06/02 05:35:04;;;;;;;28.27;6.23;;;20.10;51.20;;;;;;5025398;28;20269;-86
2023/06/02 05:37:37;;;;;;;29.07;5.97;;;20.10;51.20;;;;;;5023758;28;20197;-92
2023/06/02 05:40:07;;;;;;;40.87;6.90;;;20.10;51.10;;;;;;5027363;28;20211;-88
2023/06/02 05:42:34;;;;;;;46.30;7.13;;;20.10;51.20;;;;;;5018255;28;20197;-89
2023/06/02 05:45:02;;;;;;;35.67;6.73;;;20.10;51.10;;;;;;5017097;28;20260;-89
2023/06/02 05:47:30;;;;;;;47.10;7.47;;;20.10;51.20;;;;;;5014261;28;20207;-86
2023/06/02 05:49:58;;;;;;;48.77;7.47;;;20.10;51.20;;;;;;4999188;28;20553;-87
2023/06/02 05:52:28;;;;;;;36.57;7.13;;;20.10;51.20;;;;;;5010905;28;20722;-86
2023/06/02 05:54:57;;;;;;;26.83;6.63;;;20.10;51.20;;;;;;5011949;28;20220;-86
2023/06/02 05:57:29;;;;;;;24.63;5.87;;;20.00;51.10;;;;;;5007455;28;20202;-85
2023/06/02 05:59:59;;;;;;;28.17;5.97;;;20.10;51.20;;;;;;5011014;28;20201;-85
2023/06/02 06:02:26;;;;;;;33.57;6.77;;;20.00;51.20;;;;;;5009322;28;20212;-86
2023/06/02 06:04:55;;;;;;;32.20;6.13;;;20.00;51.20;;;;;;5002823;28;20225;-85
2023/06/02 06:07:22;;;;;;;38.80;7.57;;;20.00;51.10;;;;;;5009253;28;20205;-86
2023/06/02 06:09:49;;;;;;;39.17;6.90;;;20.00;51.20;;;;;;5009062;28;20197;-86
2023/06/02 06:12:16;;;;;;;33.83;6.53;;;20.00;51.10;;;;;;5009472;28;20225;-86
2023/06/02 06:14:47;;;;;;;34.23;6.57;;;20.00;51.20;;;;;;5012569;28;20534;-85
2023/06/02 06:17:18;;;;;;;36.20;6.73;;;20.00;51.70;;;;;;5011012;28;20197;-86
2023/06/02 06:19:46;;;;;;;34.60;7.10;;;20.00;51.20;;;;;;5014521;28;20931;-86
2023/06/02 06:22:18;;;;;;;33.63;6.60;;;20.00;51.10;;;;;;5008203;28;20248;-85
2023/06/02 06:24:45;;;;;;;33.27;6.57;;;20.00;51.10;;;;;;5013049;28;20229;-85
2023/06/02 06:27:18;;;;;;;36.43;6.67;;;20.00;51.20;;;;;;5012785;28;20712;-85
2023/06/02 06:29:48;;;;;;;39.00;7.03;;;20.00;51.20;;;;;;5012720;28;20206;-85
2023/06/02 06:32:16;;;;;;;26.40;6.37;;;20.00;51.20;;;;;;5012933;28;20224;-85
2023/06/02 06:34:43;;;;;;;33.07;6.43;;;20.00;51.20;;;;;;5011522;28;20213;-86
2023/06/02 06:37:11;;;;;;;32.67;6.67;;;20.00;51.10;;;;;;5013896;28;20222;-85
2023/06/02 06:39:42;;;;;;;34.10;6.53;;;20.00;51.20;;;;;;5013407;28;20216;-85
2023/06/02 06:42:09;;;;;;;54.43;8.40;;;20.00;51.30;;;;;;5007735;28;20297;-86
2023/06/02 06:44:36;;;;;;;41.53;7.27;;;20.00;51.20;;;;;;5010111;28;20228;-85
2023/06/02 06:47:05;;;;;;;40.27;7.27;;;20.00;51.20;;;;;;5012006;28;20281;-85
2023/06/02 06:49:32;;;;;;;38.00;8.53;;;19.90;51.10;;;;;;5012395;28;20205;-85
2023/06/02 06:51:59;;;;;;;37.93;8.27;;;20.00;51.20;;;;;;5011493;28;20233;-85
2023/06/02 06:54:26;;;;;;;36.37;8.70;;;20.00;51.20;;;;;;5012089;28;20615;-85
2023/06/02 06:56:52;;;;;;;50.97;10.20;;;19.90;51.10;;;;;;5012469;28;20220;-86
2023/06/02 06:59:19;;;;;;;59.40;11.10;;;20.00;51.20;;;;;;5010316;28;20761;-86
2023/06/02 07:01:46;;;;;;;46.50;9.23;;;20.00;51.20;;;;;;5008038;28;20236;-85
2023/06/02 07:04:14;;;;;;;39.00;8.70;;;19.90;51.10;;;;;;5014823;28;20193;-89
2023/06/02 07:06:41;;;;;;;43.53;9.97;;;19.90;51.10;;;;;;5012585;28;20596;-86
2023/06/02 07:09:10;;;;;;;47.80;9.77;;;20.00;51.20;;;;;;5020381;28;20205;-86
2023/06/02 07:11:37;;;;;;;38.50;9.00;;;19.90;51.10;;;;;;5019661;28;20193;-87
2023/06/02 07:14:05;;;;;;;35.40;9.23;;;19.90;51.20;;;;;;5017242;28;20633;-86
2023/06/02 07:16:33;;;;;;;36.90;9.07;;;19.90;51.10;;;;;;5018514;28;20293;-86
2023/06/02 07:18:59;;;;;;;38.90;9.07;;;19.90;51.10;;;;;;5023076;28;20232;-84
2023/06/02 07:21:28;;;;;;;44.87;9.53;;;19.90;51.20;;;;;;5019755;28;20208;-85
2023/06/02 07:23:55;;;;;;;53.50;10.47;;;19.90;51.10;;;;;;5013654;28;20209;-86
2023/06/02 07:26:23;;;;;;;43.17;9.87;;;19.90;51.10;;;;;;5015758;28;20240;-85
2023/06/02 07:28:50;;;;;;;54.77;10.30;;;19.90;51.10;;;;;;5019723;28;20241;-86
2023/06/02 07:31:19;;;;;;;41.17;8.23;;;19.90;51.10;;;;;;5018213;28;20256;-85
2023/06/02 07:33:46;;;;;;;26.37;7.10;;;19.90;51.10;;;;;;5021667;28;20212;-85
2023/06/02 07:36:13;;;;;;;30.33;7.97;;;19.90;51.10;;;;;;5023088;28;20231;-89
2023/06/02 07:38:42;;;;;;;33.10;8.17;;;20.00;51.20;;;;;;5023729;28;20201;-86
2023/06/02 07:41:09;;;;;;;64.30;10.03;;;19.90;51.10;;;;;;5026752;28;20216;-89
2023/06/02 07:43:36;;;;;;;41.93;7.87;;;20.00;51.20;;;;;;5013219;28;20204;-88
2023/06/02 07:46:03;;;;;;;39.20;8.20;;;20.00;51.10;;;;;;5010911;28;20221;-85
2023/06/02 07:48:30;;;;;;;52.50;9.23;;;20.00;51.20;;;;;;5012566;28;20198;-85
2023/06/02 07:50:57;;;;;;;43.57;8.10;;;20.00;51.20;;;;;;5013553;28;20202;-85
2023/06/02 07:53:26;;;;;;;28.13;6.87;;;19.90;51.10;;;;;;5013858;28;20200;-86
2023/06/02 07:55:57;;;;;;;48.63;8.63;;;19.90;51.10;;;;;;5011906;28;20697;-85
2023/06/02 07:58:24;;;;;;;42.27;7.83;;;19.90;51.10;;;;;;5012984;28;20562;-85
2023/06/02 08:00:52;;;;;;;33.13;7.87;;;19.90;51.10;;;;;;5012245;28;20296;-86
2023/06/02 08:03:19;;;;;;;48.47;9.10;;;19.90;51.20;;;;;;5011677;28;20227;-86
2023/06/02 08:05:46;;;;;;;34.83;7.90;;;19.90;51.10;;;;;;5012204;28;20236;-84
2023/06/02 08:08:13;;;;;;;31.07;7.13;;;19.90;51.10;;;;;;5010307;28;20206;-85
2023/06/02 08:10:39;;;;;;;40.93;8.30;;;19.90;51.10;;;;;;5008791;28;20202;-85
2023/06/02 08:13:08;;;;;;;46.57;9.37;;;19.90;51.10;;;;;;5008986;28;20212;-85
2023/06/02 08:15:35;;;;;;;40.10;8.80;;;19.90;51.10;;;;;;5011324;28;20223;-84
2023/06/02 08:18:03;;;;;;;39.10;9.20;;;19.90;51.10;;;;;;5005954;28;20815;-85
2023/06/02 08:20:33;;;;;;;33.97;8.83;;;19.90;51.10;;;;;;5010459;28;20219;-85
2023/06/02 08:23:00;;;;;;;44.83;9.63;;;20.00;51.30;;;;;;5010966;28;20299;-85
2023/06/02 08:25:29;;;;;;;44.87;9.57;;;19.90;51.10;;;;;;5010744;28;20210;-86
2023/06/02 08:27:56;;;;;;;53.87;10.97;;;19.90;51.10;;;;;;5010814;28;20229;-85
2023/06/02 08:30:25;;;;;;;35.93;9.43;;;19.90;51.10;;;;;;5012414;28;20206;-87
2023/06/02 08:32:54;;;;;;;36.50;9.43;;;19.90;51.10;;;;;;5012414;28;20216;-86
2023/06/02 08:35:21;;;;;;;51.03;9.73;;;19.90;51.20;;;;;;5008148;28;21135;-89
2023/06/02 08:37:51;;;;;;;46.17;8.53;;;19.90;51.10;;;;;;5005798;28;20647;-87
2023/06/02 08:40:20;;;;;;;43.10;9.03;;;19.90;51.10;;;;;;5012251;28;20194;-84
2023/06/02 08:42:48;;;;;;;37.80;8.53;;;20.00;51.20;;;;;;5001295;28;20214;-85
2023/06/02 08:45:20;;;;;;;37.07;8.47;;;19.90;51.10;;;;;;4992241;28;20224;-85
2023/06/02 08:47:53;;;;;;;37.63;8.80;;;20.00;51.20;;;;;;4996583;28;20209;-85
2023/06/02 08:50:23;;;;;;;49.20;9.73;;;19.90;51.10;;;;;;5010705;28;20219;-88
2023/06/02 08:52:51;;;;;;;45.13;9.60;;;19.90;51.10;;;;;;5009852;28;20647;-84
2023/06/02 08:55:18;;;;;;;53.47;9.17;;;20.00;51.20;;;;;;5010910;28;20213;-86
2023/06/02 08:57:46;;;;;;;47.97;9.47;;;19.90;51.10;;;;;;5009637;28;20232;-87
2023/06/02 09:00:15;;;;;;;47.07;9.83;;;20.00;51.20;;;;;;5009204;28;20235;-85
2023/06/02 09:02:42;;;;;;;51.63;9.70;;;19.90;51.10;;;;;;5007780;28;20264;-85
2023/06/02 09:05:16;;;;;;;53.13;9.87;;;19.90;51.20;;;;;;4998695;28;20651;-85
2023/06/02 09:07:45;;;;;;;51.10;9.27;;;20.00;51.30;;;;;;5007833;28;21131;-86
2023/06/02 09:10:30;;;;;;;43.87;8.83;;;20.00;51.20;;;;;;5008842;28;20233;-85
2023/06/02 09:12:57;;;;;;;53.67;9.53;;;20.00;51.20;;;;;;5010341;28;20256;-85
2023/06/02 09:15:25;;;;;;;51.50;9.23;;;20.00;51.20;;;;;;5009428;28;20318;-85
2023/06/02 09:17:52;;;;;;;57.47;9.70;;;20.00;51.20;;;;;;5009602;28;20232;-85
2023/06/02 09:20:31;;;;;;;43.73;8.60;;;20.00;51.30;;;;;;5008040;28;20205;-86
2023/06/02 09:23:01;;;;;;;41.13;8.43;;;20.00;51.20;;;;;;5009550;28;20307;-85
2023/06/02 09:25:29;;;;;;;48.13;8.70;;;20.00;51.20;;;;;;5008498;28;20309;-85
2023/06/02 09:27:57;;;;;;;58.47;9.67;;;20.00;51.30;;;;;;4992779;28;20316;-84
2023/06/02 09:30:26;;;;;;;48.37;8.20;;;20.00;51.20;;;;;;5005255;28;20300;-88
2023/06/02 09:32:55;;;;;;;47.83;8.70;;;20.00;51.20;;;;;;5009106;28;20201;-85
2023/06/02 09:35:41;;;;;;;64.03;9.97;;;20.00;51.20;;;;;;5010229;28;20232;-85
2023/06/02 09:38:11;;;;;;;45.87;8.03;;;20.00;51.20;;;;;;5004378;28;20228;-85
2023/06/02 09:40:38;;;;;;;48.57;8.23;;;20.10;51.30;;;;;;5010216;28;20314;-85
2023/06/02 09:43:06;;;;;;;59.23;8.87;;;20.10;51.30;;;;;;5009267;28;20760;-85
2023/06/02 09:45:35;;;;;;;33.40;7.20;;;20.10;51.30;;;;;;5010822;28;20709;-86
2023/06/02 09:48:17;;;;;;;47.50;8.40;;;20.10;51.30;;;;;;5012254;28;20213;-85
2023/06/02 09:50:48;;;;;;;41.93;8.23;;;20.10;51.30;;;;;;5010139;28;20205;-85
2023/06/02 09:53:17;;;;;;;61.77;9.33;;;20.10;51.30;;;;;;5008363;28;20859;-85
2023/06/02 09:55:46;;;;;;;38.20;7.10;;;20.10;51.30;;;;;;5007890;28;20205;-85
2023/06/02 09:58:13;;;;;;;44.23;7.93;;;20.10;51.30;;;;;;5008328;28;20618;-85
2023/06/02 10:00:40;;;;;;;41.53;7.47;;;20.10;51.30;;;;;;5007686;28;20205;-86
2023/06/02 10:03:13;;;;;;;38.80;7.67;;;20.20;51.40;;;;;;5010376;28;20601;-85
2023/06/02 10:05:49;;;;;;;66.73;9.73;;;20.20;51.40;;;;;;5007127;28;20292;-85
2023/06/02 10:08:31;;;;;;;44.30;8.20;;;20.20;51.40;;;;;;4997313;28;20200;-86
2023/06/02 10:11:06;;;;;;;35.90;7.47;;;20.20;51.40;;;;;;5010459;28;20201;-86
2023/06/02 10:13:54;;;;;;;54.60;8.67;;;20.20;51.40;;;;;;5009464;28;20230;-85
2023/06/02 10:16:50;;;;;;;45.07;8.00;;;20.30;51.50;;;;;;5007434;28;20724;-86
2023/06/02 10:19:55;;;;;;;39.60;7.87;;;20.30;51.40;;;;;;5002693;28;20557;-85
2023/06/02 10:22:47;;;;;;;47.90;8.47;;;20.30;51.50;;;;;;5009097;28;20260;-85
2023/06/02 10:25:25;;;;;;;40.27;7.40;;;20.30;51.40;;;;;;4988664;28;20210;-85
2023/06/02 10:27:52;;;;;;;40.60;7.13;;;20.30;51.40;;;;;;5009054;28;20221;-85
2023/06/02 10:30:21;;;;;;;41.03;7.47;;;20.30;51.40;;;;;;5009046;28;20288;-85
2023/06/02 10:32:51;;;;;;;40.67;7.43;;;20.30;51.50;;;;;;5008897;28;20209;-85
2023/06/02 10:35:22;;;;;;;46.70;8.07;;;20.30;51.40;;;;;;5009939;28;20513;-85
2023/06/02 10:38:24;;;;;;;27.47;6.37;;;20.40;51.60;;;;;;5009486;28;20233;-85
2023/06/02 10:40:55;;;;;;;41.07;7.83;;;20.40;51.60;;;;;;5010040;28;20198;-85
2023/06/02 10:43:23;;;;;;;55.43;8.47;;;20.40;51.50;;;;;;5007499;28;20754;-85
2023/06/02 10:45:50;;;;;;;38.53;7.20;;;20.40;51.50;;;;;;5015585;28;20213;-85
2023/06/02 10:48:39;;;;;;;40.63;7.33;;;20.40;51.50;;;;;;5014816;28;20292;-85
2023/06/02 10:51:08;;;;;;;95.47;11.53;;;20.40;51.60;;;;;;4990890;28;20210;-85
2023/06/02 10:54:18;;;;;;;38.63;6.97;;;20.40;51.50;;;;;;4997359;28;20197;-85
2023/06/02 10:56:46;;;;;;;41.13;7.20;;;20.40;51.60;;;;;;4991642;28;20233;-86
2023/06/02 10:59:32;;;;;;;38.20;7.50;;;20.50;51.60;;;;;;5001818;28;20195;-86
2023/06/02 11:01:59;;;;;;;40.30;7.33;;;20.50;51.60;;;;;;5011268;28;20680;-85
2023/06/02 11:04:31;;;;;;;40.33;7.50;;;20.50;51.60;;;;;;5012912;28;20240;-85
2023/06/02 11:07:21;;;;;;;34.33;6.93;;;20.50;51.60;;;;;;5012686;28;20289;-85
2023/06/02 11:09:51;;;;;;;36.40;6.97;;;20.50;51.60;;;;;;5011442;28;20687;-85
2023/06/02 11:13:03;;;;;;;39.53;6.80;;;20.60;51.70;;;;;;5011965;28;20276;-85
2023/06/02 11:15:30;;;;;;;44.83;7.67;;;20.60;51.70;;;;;;5011966;28;20304;-85
2023/06/02 11:18:00;;;;;;;35.67;6.67;;;20.60;51.70;;;;;;5012356;28;20322;-85
2023/06/02 11:20:34;;;;;;;43.30;8.17;;;20.60;51.70;;;;;;5012164;28;20190;-85
2023/06/02 11:23:04;;;;;;;32.43;6.17;;;20.60;51.70;;;;;;5012086;28;20189;-85
2023/06/02 11:25:33;;;;;;;29.10;6.67;;;20.70;51.70;;;;;;5011359;28;20217;-85
2023/06/02 11:28:00;;;;;;;32.87;6.70;;;20.70;51.80;;;;;;5011252;28;20346;-85
2023/06/02 11:30:27;;;;;;;34.87;7.77;;;20.70;51.80;;;;;;5011038;28;20297;-85
2023/06/02 11:32:55;;;;;;;40.33;7.27;;;20.70;51.80;;;;;;4997659;28;20205;-85
2023/06/02 11:35:25;;;;;;;57.70;8.87;;;20.70;51.70;;;;;;5011567;28;20206;-86
2023/06/02 11:38:04;;;;;;;41.63;7.93;;;20.80;51.90;;;;;;5011597;28;20244;-85
2023/06/02 11:40:33;;;;;;;50.50;8.03;;;20.80;51.90;;;;;;5010745;28;20640;-84
2023/06/02 11:43:00;;;;;;;43.43;7.53;;;20.70;51.70;;;;;;5010541;28;20288;-85
2023/06/02 11:45:28;;;;;;;36.43;7.10;;;20.80;51.90;;;;;;5011289;28;20205;-85
2023/06/02 11:48:05;;;;;;;36.07;7.00;;;20.80;51.90;;;;;;5011636;28;20296;-85
2023/06/02 11:50:32;;;;;;;40.37;7.37;;;20.80;51.80;;;;;;5007043;28;20316;-85
2023/06/02 11:53:00;;;;;;;42.53;7.47;;;20.80;51.90;;;;;;4995493;28;20206;-85
2023/06/02 11:55:31;;;;;;;33.20;6.80;;;20.80;51.80;;;;;;5009860;28;20209;-85
2023/06/02 11:58:19;;;;;;;42.70;7.60;;;20.90;51.90;;;;;;5011146;28;20237;-85
2023/06/02 12:00:46;;;;;;;44.53;7.80;;;20.90;51.90;;;;;;5009683;28;20215;-85
2023/06/02 12:03:14;;;;;;;41.23;7.10;;;20.90;51.90;;;;;;5010220;28;20629;-86
2023/06/02 12:05:44;;;;;;;32.40;6.70;;;20.90;51.90;;;;;;5010595;28;20285;-85
2023/06/02 12:08:12;;;;;;;51.47;7.60;;;20.90;51.90;;;;;;5000070;28;20194;-85
2023/06/02 12:10:41;;;;;;;32.57;6.80;;;21.00;52.00;;;;;;5017308;28;20197;-86
2023/06/02 12:13:11;;;;;;;29.97;6.40;;;21.00;52.00;;;;;;5014997;28;20210;-85
2023/06/02 12:15:39;;;;;;;35.80;7.23;;;21.00;52.00;;;;;;5015247;28;20215;-86
2023/06/02 12:18:08;;;;;;;32.60;6.83;;;21.00;52.00;;;;;;5015458;28;20241;-85
2023/06/02 12:20:37;;;;;;;31.43;8.40;;;21.00;52.00;;;;;;5012916;28;20231;-86
2023/06/02 12:23:07;;;;;;;36.83;9.57;;;21.10;52.10;;;;;;5013609;28;20207;-85
2023/06/02 12:25:34;;;;;;;34.20;8.40;;;21.00;52.00;;;;;;5013169;28;20260;-85
2023/06/02 12:28:12;;;;;;;39.37;9.23;;;21.10;52.10;;;;;;5016470;28;20227;-86
2023/06/02 12:30:48;;;;;;;33.87;7.97;;;21.10;52.00;;;;;;5020062;28;20876;-85
2023/06/02 12:33:16;;;;;;;36.17;8.23;;;21.20;52.20;;;;;;5022953;28;20601;-85
2023/06/02 12:35:43;;;;;;;36.77;8.07;;;21.10;52.00;;;;;;5017278;28;20272;-85
2023/06/02 12:38:10;;;;;;;39.50;8.53;;;21.20;52.10;;;;;;5015540;28;20217;-85
2023/06/02 12:40:40;;;;;;;28.87;7.27;;;21.20;52.10;;;;;;5014077;28;20207;-85
2023/06/02 12:43:09;;;;;;;51.13;8.93;;;21.20;52.20;;;;;;5012101;28;20686;-86
2023/06/02 12:45:36;;;;;;;43.13;8.40;;;21.30;52.20;;;;;;5008093;28;20669;-85
2023/06/02 12:48:06;;;;;;;50.33;8.87;;;21.30;52.20;;;;;;5017342;28;20225;-85